createdAt,value
2023-03-15T00:02:22.208Z,0.73
2023-03-15T00:07:25.952Z,0.70
2023-03-15T00:12:29.951Z,0.93
2023-03-15T00:17:32.251Z,1.00
2023-03-15T00:22:35.683Z,1.00
2023-03-15T00:27:37.866Z,0.80
2023-03-15T00:32:39.792Z,0.83
2023-03-15T00:37:45.335Z,0.90
2023-03-15T00:42:47.405Z,1.20
2023-03-15T00:47:50.103Z,0.60
2023-03-15T00:52:53.880Z,0.57
2023-03-15T00:57:57.083Z,0.57
2023-03-15T01:02:59.338Z,0.60
2023-03-15T01:08:02.646Z,1.00
2023-03-15T01:13:04.713Z,1.60
2023-03-15T01:18:07.070Z,0.50
2023-03-15T01:23:10.141Z,1.23
2023-03-15T01:28:12.078Z,0.90
2023-03-15T01:33:13.990Z,0.80
2023-03-15T01:38:17.776Z,0.37
2023-03-15T01:43:21.977Z,0.43
2023-03-15T01:48:28.136Z,0.87
2023-03-15T01:53:33.200Z,0.60
2023-03-15T01:58:38.692Z,1.07
2023-03-15T02:03:45.023Z,0.63
2023-03-15T02:08:52.096Z,1.10
2023-03-15T02:13:56.401Z,0.80
2023-03-15T02:18:58.949Z,1.30
2023-03-15T02:24:12.620Z,0.97
2023-03-15T02:29:16.456Z,1.20
2023-03-15T02:34:18.585Z,0.90
2023-03-15T02:39:22.085Z,0.60
2023-03-15T02:44:29.202Z,0.97
2023-03-15T02:49:35.889Z,0.80
2023-03-15T02:54:37.992Z,0.67
2023-03-15T02:59:41.612Z,0.67
2023-03-15T03:04:43.698Z,1.07
2023-03-15T03:09:45.862Z,1.00
2023-03-15T03:14:49.426Z,1.00
2023-03-15T03:19:51.803Z,0.63
2023-03-15T03:24:53.866Z,0.60
2023-03-15T03:29:57.404Z,1.00
2023-03-15T03:34:59.692Z,0.60
2023-03-15T03:40:01.779Z,1.20
2023-03-15T03:45:07.994Z,0.80
2023-03-15T03:50:11.641Z,0.80
2023-03-15T03:55:14.013Z,0.70
2023-03-15T04:00:21.569Z,1.03
2023-03-15T04:05:25.525Z,1.57
2023-03-15T04:10:28.741Z,0.60
2023-03-15T04:15:33.709Z,0.53
2023-03-15T04:20:38.020Z,0.80
2023-03-15T04:25:41.758Z,1.30
2023-03-15T04:30:45.600Z,0.83
2023-03-15T04:35:49.145Z,0.73
2023-03-15T04:40:52.241Z,0.93
2023-03-15T04:45:56.149Z,0.70
2023-03-15T04:50:58.963Z,0.90
2023-03-15T04:56:04.747Z,1.03
2023-03-15T05:01:09.101Z,0.70
2023-03-15T05:06:12.500Z,1.47
2023-03-15T05:11:15.041Z,0.70
2023-03-15T05:16:18.590Z,1.37
2023-03-15T05:21:21.372Z,0.60
2023-03-15T05:26:23.670Z,0.67
2023-03-15T05:31:27.604Z,1.00
2023-03-15T05:36:41.829Z,1.00
2023-03-15T05:41:47.937Z,0.73
2023-03-15T05:46:53.009Z,1.37
2023-03-15T05:51:56.035Z,1.40
2023-03-15T05:56:59.789Z,1.03
2023-03-15T06:02:03.936Z,0.93
2023-03-15T06:07:06.024Z,1.53
2023-03-15T06:12:09.150Z,0.63
2023-03-15T06:17:13.470Z,1.10
2023-03-15T06:22:16.940Z,0.80
2023-03-15T06:27:18.825Z,0.90
2023-03-15T06:32:22.436Z,1.10
2023-03-15T06:37:34.644Z,1.23
2023-03-15T06:42:37.403Z,1.30
2023-03-15T06:47:40.840Z,1.30
2023-03-15T06:52:42.699Z,1.53
2023-03-15T06:57:45.633Z,1.43
2023-03-15T07:02:49.758Z,1.23
2023-03-15T07:07:51.503Z,1.13
2023-03-15T07:12:53.880Z,1.80
2023-03-15T07:17:58.106Z,1.43
2023-03-15T07:23:00.513Z,1.00
2023-03-15T07:28:02.699Z,1.57
2023-03-15T07:33:05.933Z,1.50
2023-03-15T07:38:07.942Z,1.27
2023-03-15T07:43:09.668Z,0.93
2023-03-15T07:48:13.296Z,1.63
2023-03-15T07:53:15.598Z,1.00
2023-03-15T07:58:19.815Z,1.57
2023-03-15T08:03:24.057Z,1.13
2023-03-15T08:08:26.275Z,1.10
2023-03-15T08:13:28.121Z,1.17
2023-03-15T08:18:31.825Z,1.13
2023-03-15T08:23:33.806Z,1.70
2023-03-15T08:28:35.539Z,1.37
2023-03-15T08:33:38.702Z,1.67
2023-03-15T08:38:41.822Z,1.40
2023-03-15T08:43:43.585Z,1.20
2023-03-15T08:48:46.718Z,1.37
2023-03-15T08:53:48.678Z,1.63
2023-03-15T08:58:50.973Z,1.43
2023-03-15T09:03:55.579Z,1.70
2023-03-15T09:08:57.804Z,1.77
2023-03-15T09:13:59.583Z,1.57
2023-03-15T09:19:03.182Z,1.50
2023-03-15T09:24:06.062Z,2.33
2023-03-15T09:29:08.554Z,2.07
2023-03-15T09:34:12.066Z,1.73
2023-03-15T09:39:17.700Z,1.43
2023-03-15T09:44:35.552Z,1.33
2023-03-15T09:49:45.735Z,1.37
2023-03-15T09:54:52.518Z,1.70
2023-03-15T09:59:56.487Z,1.57
2023-03-15T10:05:09.203Z,1.20
2023-03-15T10:10:17.979Z,1.23
2023-03-15T10:15:39.699Z,1.33
2023-03-15T10:20:47.535Z,1.43
2023-03-15T10:25:51.741Z,0.90
2023-03-15T10:31:00.651Z,1.50
2023-03-15T10:36:15.003Z,1.10
2023-03-15T10:41:29.217Z,0.97
2023-03-15T10:46:31.347Z,0.80
2023-03-15T10:51:39.418Z,1.10
2023-03-15T10:56:46.725Z,0.90
2023-03-15T11:01:51.186Z,0.83
2023-03-15T11:07:02.475Z,0.80
2023-03-15T11:12:06.850Z,0.70
2023-03-15T11:17:16.545Z,0.80
2023-03-15T11:22:20.259Z,1.07
2023-03-15T11:27:24.959Z,1.10
2023-03-15T11:32:30.236Z,1.13
2023-03-15T11:37:40.593Z,1.07
2023-03-15T11:42:48.592Z,1.03
2023-03-15T11:47:56.131Z,1.23
2023-03-15T11:53:00.848Z,0.67
2023-03-15T11:58:27.693Z,0.90
2023-03-15T12:03:37.924Z,0.73
2023-03-15T12:08:47.512Z,0.80
2023-03-15T12:14:03.232Z,1.20
2023-03-15T12:19:11.534Z,0.83
2023-03-15T12:24:23.487Z,1.13
2023-03-15T12:29:28.861Z,0.80
2023-03-15T12:34:38.062Z,0.53
2023-03-15T12:39:44.471Z,0.47
2023-03-15T12:44:46.572Z,0.73
2023-03-15T12:49:48.814Z,0.73
2023-03-15T12:55:01.424Z,0.70
2023-03-15T13:00:05.901Z,0.90
2023-03-15T13:05:17.190Z,0.80
2023-03-15T13:10:39.938Z,0.97
2023-03-15T13:15:50.030Z,0.70
2023-03-15T13:21:09.112Z,0.83
2023-03-15T13:26:29.950Z,0.70
2023-03-15T13:31:32.774Z,0.80
2023-03-15T13:36:40.886Z,0.67
2023-03-15T13:41:44.584Z,0.87
2023-03-15T13:46:48.647Z,0.57
2023-03-15T13:51:53.712Z,1.47
2023-03-15T13:57:03.191Z,0.80
2023-03-15T14:02:06.326Z,0.50
2023-03-15T14:07:29.726Z,0.77
2023-03-15T14:12:33.219Z,0.60
2023-03-15T14:17:35.373Z,0.70
2023-03-15T14:22:42.087Z,0.80
2023-03-15T14:27:45.599Z,0.93
2023-03-15T14:32:53.510Z,0.73
2023-03-15T14:38:03.854Z,0.90
2023-03-15T14:43:08.660Z,0.67
2023-03-15T14:48:15.658Z,0.67
2023-03-15T14:53:20.970Z,0.73
2023-03-15T14:58:24.800Z,0.40
2023-03-15T15:03:34.080Z,0.47
2023-03-15T15:08:38.452Z,0.50
2023-03-15T15:13:42.853Z,0.60
2023-03-15T15:18:44.647Z,1.17
2023-03-15T15:23:57.806Z,0.40
2023-03-15T15:29:01.572Z,0.77
2023-03-15T15:34:04.016Z,0.43
2023-03-15T15:39:20.599Z,0.53
2023-03-15T15:44:24.748Z,0.70
2023-03-15T15:49:26.897Z,0.70
2023-03-15T15:54:35.852Z,0.50
2023-03-15T15:59:39.347Z,0.60
2023-03-15T16:04:42.469Z,0.70
2023-03-15T16:09:46.715Z,0.70
2023-03-15T16:14:50.232Z,0.80
2023-03-15T16:19:53.634Z,0.40
2023-03-15T16:24:58.332Z,0.30
2023-03-15T16:30:02.627Z,0.37
2023-03-15T16:35:06.117Z,0.40
2023-03-15T16:40:15.559Z,0.67
2023-03-15T16:45:19.768Z,0.40
2023-03-15T16:50:21.916Z,0.50
2023-03-15T16:55:26.345Z,0.50
2023-03-15T17:00:30.133Z,0.50
2023-03-15T17:05:33.000Z,0.40
2023-03-15T17:10:36.041Z,0.27
2023-03-15T17:15:40.573Z,0.90
2023-03-15T17:20:43.423Z,0.50
2023-03-15T17:25:45.273Z,0.60
2023-03-15T17:30:51.603Z,1.00
2023-03-15T17:35:57.531Z,0.70
2023-03-15T17:40:59.687Z,1.20
2023-03-15T17:46:03.343Z,1.40
2023-03-15T17:51:05.743Z,1.30
2023-03-15T17:56:08.361Z,1.83
2023-03-15T18:01:15.763Z,3.33
2023-03-15T18:06:19.476Z,3.63
2023-03-15T18:11:25.508Z,3.83
2023-03-15T18:16:29.453Z,2.00
2023-03-15T18:21:31.836Z,1.77
2023-03-15T18:26:33.934Z,1.37
2023-03-15T18:31:37.552Z,1.20
2023-03-15T18:36:39.499Z,1.60
2023-03-15T18:41:42.049Z,2.97
2023-03-15T18:46:45.651Z,1.93
2023-03-15T18:51:48.050Z,2.00
2023-03-15T18:56:50.792Z,1.50
2023-03-15T19:01:53.977Z,1.00
2023-03-15T19:06:56.569Z,1.40
2023-03-15T19:11:59.104Z,1.47
2023-03-15T19:17:02.856Z,1.30
2023-03-15T19:22:08.708Z,2.13
2023-03-15T19:27:11.532Z,1.73
2023-03-15T19:32:15.133Z,1.17
2023-03-15T19:37:19.601Z,1.20
2023-03-15T19:42:23.222Z,1.87
2023-03-15T19:47:27.100Z,1.07
2023-03-15T19:52:30.311Z,1.30
2023-03-15T19:57:32.738Z,2.00
2023-03-15T20:02:36.509Z,1.90
2023-03-15T20:07:39.742Z,1.40
2023-03-15T20:12:42.679Z,1.20
2023-03-15T20:17:48.003Z,1.00
2023-03-15T20:22:50.869Z,1.40
2023-03-15T20:27:53.365Z,1.80
2023-03-15T20:32:57.284Z,1.30
2023-03-15T20:38:00.187Z,1.20
2023-03-15T20:43:03.166Z,1.23
2023-03-15T20:48:07.283Z,1.17
2023-03-15T20:53:09.586Z,1.07
2023-03-15T20:58:11.968Z,1.13
2023-03-15T21:03:16.473Z,1.40
2023-03-15T21:08:18.465Z,1.13
2023-03-15T21:13:20.936Z,1.20
2023-03-15T21:18:25.049Z,1.60
2023-03-15T21:23:29.026Z,1.23
2023-03-15T21:28:31.482Z,1.33
2023-03-15T21:33:35.260Z,1.10
2023-03-15T21:38:37.655Z,1.70
2023-03-15T21:43:39.710Z,1.93
2023-03-15T21:48:42.885Z,1.23
2023-03-15T21:53:44.579Z,2.37
2023-03-15T21:58:46.679Z,1.40
2023-03-15T22:03:51.248Z,1.10
2023-03-15T22:08:53.332Z,1.53
2023-03-15T22:13:55.204Z,2.07
2023-03-15T22:18:59.202Z,1.60
2023-03-15T22:24:01.364Z,1.40
2023-03-15T22:29:03.496Z,1.30
2023-03-15T22:34:06.980Z,1.50
2023-03-15T22:39:09.729Z,1.37
2023-03-15T22:44:11.947Z,1.47
2023-03-15T22:49:15.006Z,1.30
2023-03-15T22:54:16.717Z,1.10
2023-03-15T22:59:18.438Z,1.00
2023-03-15T23:04:22.457Z,1.60
2023-03-15T23:09:24.738Z,1.70
2023-03-15T23:14:27.044Z,1.37
2023-03-15T23:19:30.765Z,1.17
2023-03-15T23:24:33.022Z,1.30
2023-03-15T23:29:47.133Z,1.30
2023-03-15T23:34:57.583Z,1.10
2023-03-15T23:39:59.684Z,1.00
2023-03-15T23:45:01.414Z,1.40
2023-03-15T23:50:05.887Z,1.17
2023-03-15T23:55:08.724Z,1.10
